Mestre Joao Rico — CURN — position and weather

sailwx.info

Track history (hours):
 
Tides and Currents Weather Stations Pressure Air Temp Water Temp Dewpoint Dewpoint Depression Visibility Wind Speed Wind Dir Waves Ship Positions

Mestre Joao Rico

Last reported at 2017-Dec-26 20:01 UTC. Time now 2018-Jan-19 00:01 UTC.
Position N 36°48' W 008°31'.
Warning: this ship's position is 23 days out of date.

Length 24 m.

Type: Fishing. MMSI: 263462000.

Date/timePositionNaut miles runAvg speedWind from/ knotsBaromVisibWave heightAir tempDewpointWater temp
2017-Dec-26 20:01N 36°48' W 008°31'0 4.7
2017-Dec-26 19:56N 36°48' W 008°31'  
2017-Dec-20 19:41N 36°47' W 008°40'  
2017-Dec-18 06:44N 36°48' W 008°29'1 3.4
2017-Dec-18 06:23N 36°48' W 008°30'5 0.2
2017-Dec-17 09:04N 36°48' W 008°23'0 3.1
2017-Dec-17 08:57N 36°48' W 008°24'4 3.6
2017-Dec-17 07:57N 36°49' W 008°28'1 0.7
2017-Dec-17 07:14N 36°49' W 008°29'1 3.1
2017-Dec-17 07:00N 36°49' W 008°28'10 2.9
2017-Dec-17 03:40N 36°50' W 008°16'0 0.6
2017-Dec-17 03:30N 36°50' W 008°16'4 3.1
2017-Dec-17 02:20N 36°51' W 008°20'1 3.1
2017-Dec-17 01:58N 36°51' W 008°22'2 3.1
2017-Dec-17 01:28N 36°52' W 008°23'2 3.1
2017-Dec-17 00:58N 36°53' W 008°25'1 3.1
2017-Dec-17 00:30N 36°53' W 008°27'2 3.1
2017-Dec-17 00:00N 36°53' W 008°29'1 2.9
2017-Dec-16 23:30N 36°52' W 008°30'  
Track history (hours):
 
Tides and Currents Weather Stations Pressure Air Temp Water Temp Dewpoint Dewpoint Depression Visibility Wind Speed Wind Dir Waves Ship Positions

Mestre Joao Rico

Last reported at 2017-Dec-26 20:01 UTC. Time now 2018-Jan-19 00:01 UTC.
Position N 36°48' W 008°31'.
Warning: this ship's position is 23 days out of date.

Length 24 m.

Type: Fishing. MMSI: 263462000.

Date/timePositionNaut miles runAvg speedWind from/ knotsBaromVisibWave heightAir tempDewpointWater temp
2017-Dec-26 20:01N 36°48' W 008°31'0 4.7
2017-Dec-26 19:56N 36°48' W 008°31'  
2017-Dec-20 19:41N 36°47' W 008°40'  
2017-Dec-18 06:44N 36°48' W 008°29'1 3.4
2017-Dec-18 06:23N 36°48' W 008°30'5 0.2
2017-Dec-17 09:04N 36°48' W 008°23'0 3.1
2017-Dec-17 08:57N 36°48' W 008°24'4 3.6
2017-Dec-17 07:57N 36°49' W 008°28'1 0.7
2017-Dec-17 07:14N 36°49' W 008°29'1 3.1
2017-Dec-17 07:00N 36°49' W 008°28'10 2.9
2017-Dec-17 03:40N 36°50' W 008°16'0 0.6
2017-Dec-17 03:30N 36°50' W 008°16'4 3.1
2017-Dec-17 02:20N 36°51' W 008°20'1 3.1
2017-Dec-17 01:58N 36°51' W 008°22'2 3.1
2017-Dec-17 01:28N 36°52' W 008°23'2 3.1
2017-Dec-17 00:58N 36°53' W 008°25'1 3.1
2017-Dec-17 00:30N 36°53' W 008°27'2 3.1
2017-Dec-17 00:00N 36°53' W 008°29'1 2.9
2017-Dec-16 23:30N 36°52' W 008°30'  

Dump ship's entire track history